sensor_id;sensor_type;location;lat;lon;timestamp;P1;durP1;ratioP1;P2;durP2;ratioP2
10517;SDS011;5307;42.548;22.968;2023-08-21T00:02:23;14.20;;;8.48;;
10517;SDS011;5307;42.548;22.968;2023-08-21T00:04:52;10.70;;;8.55;;
10517;SDS011;5307;42.548;22.968;2023-08-21T00:07:20;10.13;;;8.32;;
10517;SDS011;5307;42.548;22.968;2023-08-21T00:09:46;10.65;;;8.70;;
10517;SDS011;5307;42.548;22.968;2023-08-21T00:12:14;13.05;;;8.50;;
10517;SDS011;5307;42.548;22.968;2023-08-21T00:14:41;10.00;;;8.45;;
10517;SDS011;5307;42.548;22.968;2023-08-21T00:17:08;13.50;;;8.85;;
10517;SDS011;5307;42.548;22.968;2023-08-21T00:19:35;11.75;;;8.35;;
10517;SDS011;5307;42.548;22.968;2023-08-21T00:22:02;12.73;;;8.75;;
10517;SDS011;5307;42.548;22.968;2023-08-21T00:24:29;10.38;;;8.55;;
10517;SDS011;5307;42.548;22.968;2023-08-21T00:26:55;11.32;;;8.13;;
10517;SDS011;5307;42.548;22.968;2023-08-21T00:29:23;10.23;;;8.45;;
10517;SDS011;5307;42.548;22.968;2023-08-21T00:31:50;11.48;;;8.10;;
10517;SDS011;5307;42.548;22.968;2023-08-21T00:34:17;9.93;;;7.97;;
10517;SDS011;5307;42.548;22.968;2023-08-21T00:36:44;11.93;;;8.90;;
10517;SDS011;5307;42.548;22.968;2023-08-21T00:39:10;10.43;;;8.43;;
10517;SDS011;5307;42.548;22.968;2023-08-21T00:41:38;10.15;;;7.70;;
10517;SDS011;5307;42.548;22.968;2023-08-21T00:44:04;11.40;;;8.18;;
10517;SDS011;5307;42.548;22.968;2023-08-21T00:46:33;12.35;;;9.15;;
10517;SDS011;5307;42.548;22.968;2023-08-21T00:49:00;11.93;;;8.18;;
10517;SDS011;5307;42.548;22.968;2023-08-21T00:51:27;10.88;;;7.63;;
10517;SDS011;5307;42.548;22.968;2023-08-21T00:53:54;9.07;;;7.57;;
10517;SDS011;5307;42.548;22.968;2023-08-21T00:56:22;10.45;;;7.75;;
10517;SDS011;5307;42.548;22.968;2023-08-21T00:58:49;9.45;;;7.47;;
10517;SDS011;5307;42.548;22.968;2023-08-21T01:01:16;9.43;;;7.38;;
10517;SDS011;5307;42.548;22.968;2023-08-21T01:03:46;13.15;;;7.80;;
10517;SDS011;5307;42.548;22.968;2023-08-21T01:06:13;8.77;;;7.82;;
10517;SDS011;5307;42.548;22.968;2023-08-21T01:08:42;8.27;;;6.90;;
10517;SDS011;5307;42.548;22.968;2023-08-21T01:11:14;10.75;;;7.65;;
10517;SDS011;5307;42.548;22.968;2023-08-21T01:13:47;8.35;;;7.55;;
10517;SDS011;5307;42.548;22.968;2023-08-21T01:16:23;9.73;;;7.78;;
10517;SDS011;5307;42.548;22.968;2023-08-21T01:18:52;11.65;;;6.95;;
10517;SDS011;5307;42.548;22.968;2023-08-21T01:21:22;8.68;;;7.72;;
10517;SDS011;5307;42.548;22.968;2023-08-21T01:23:51;7.88;;;7.05;;
10517;SDS011;5307;42.548;22.968;2023-08-21T01:26:18;10.82;;;7.22;;
10517;SDS011;5307;42.548;22.968;2023-08-21T01:28:44;8.18;;;6.63;;
10517;SDS011;5307;42.548;22.968;2023-08-21T01:31:14;10.15;;;8.00;;
10517;SDS011;5307;42.548;22.968;2023-08-21T01:33:46;12.70;;;7.10;;
10517;SDS011;5307;42.548;22.968;2023-08-21T01:36:17;8.75;;;7.70;;
10517;SDS011;5307;42.548;22.968;2023-08-21T01:38:44;13.25;;;8.15;;
10517;SDS011;5307;42.548;22.968;2023-08-21T01:41:12;9.43;;;7.25;;
10517;SDS011;5307;42.548;22.968;2023-08-21T01:43:39;13.25;;;8.27;;
10517;SDS011;5307;42.548;22.968;2023-08-21T01:46:06;8.23;;;7.43;;
10517;SDS011;5307;42.548;22.968;2023-08-21T01:48:33;10.63;;;8.05;;
10517;SDS011;5307;42.548;22.968;2023-08-21T01:51:00;10.32;;;7.57;;
10517;SDS011;5307;42.548;22.968;2023-08-21T01:53:27;9.95;;;8.18;;
10517;SDS011;5307;42.548;22.968;2023-08-21T01:55:54;14.45;;;7.38;;
10517;SDS011;5307;42.548;22.968;2023-08-21T01:58:22;11.48;;;7.88;;
10517;SDS011;5307;42.548;22.968;2023-08-21T02:00:49;7.93;;;7.13;;
10517;SDS011;5307;42.548;22.968;2023-08-21T02:03:16;10.50;;;8.15;;
10517;SDS011;5307;42.548;22.968;2023-08-21T02:05:42;10.95;;;7.88;;
10517;SDS011;5307;42.548;22.968;2023-08-21T02:08:11;8.98;;;7.10;;
10517;SDS011;5307;42.548;22.968;2023-08-21T02:10:46;13.18;;;7.45;;
10517;SDS011;5307;42.548;22.968;2023-08-21T02:13:13;8.10;;;7.30;;
10517;SDS011;5307;42.548;22.968;2023-08-21T02:15:41;9.02;;;8.07;;
10517;SDS011;5307;42.548;22.968;2023-08-21T02:18:08;13.38;;;8.10;;
10517;SDS011;5307;42.548;22.968;2023-08-21T02:20:35;9.40;;;7.93;;
10517;SDS011;5307;42.548;22.968;2023-08-21T02:23:02;8.95;;;7.70;;
10517;SDS011;5307;42.548;22.968;2023-08-21T02:25:29;9.57;;;7.85;;
10517;SDS011;5307;42.548;22.968;2023-08-21T02:27:56;9.85;;;8.00;;
10517;SDS011;5307;42.548;22.968;2023-08-21T02:30:22;10.85;;;8.43;;
10517;SDS011;5307;42.548;22.968;2023-08-21T02:32:51;12.52;;;8.18;;
10517;SDS011;5307;42.548;22.968;2023-08-21T02:35:18;8.48;;;7.63;;
10517;SDS011;5307;42.548;22.968;2023-08-21T02:43:47;9.88;;;7.85;;
10517;SDS011;5307;42.548;22.968;2023-08-21T02:46:14;9.63;;;8.20;;
10517;SDS011;5307;42.548;22.968;2023-08-21T02:48:43;9.45;;;8.35;;
10517;SDS011;5307;42.548;22.968;2023-08-21T02:51:10;11.43;;;8.23;;
10517;SDS011;5307;42.548;22.968;2023-08-21T02:53:36;9.40;;;8.30;;
10517;SDS011;5307;42.548;22.968;2023-08-21T02:56:03;8.98;;;7.35;;
10517;SDS011;5307;42.548;22.968;2023-08-21T02:58:30;12.45;;;8.60;;
10517;SDS011;5307;42.548;22.968;2023-08-21T03:00:57;9.20;;;8.23;;
10517;SDS011;5307;42.548;22.968;2023-08-21T03:03:24;13.70;;;8.63;;
10517;SDS011;5307;42.548;22.968;2023-08-21T03:05:52;13.30;;;8.50;;
10517;SDS011;5307;42.548;22.968;2023-08-21T03:08:19;11.52;;;7.97;;
10517;SDS011;5307;42.548;22.968;2023-08-21T03:10:45;8.13;;;7.30;;
10517;SDS011;5307;42.548;22.968;2023-08-21T03:13:12;16.52;;;9.00;;
10517;SDS011;5307;42.548;22.968;2023-08-21T03:15:39;13.23;;;8.60;;
10517;SDS011;5307;42.548;22.968;2023-08-21T03:18:06;14.50;;;8.52;;
10517;SDS011;5307;42.548;22.968;2023-08-21T03:20:32;15.55;;;8.85;;
10517;SDS011;5307;42.548;22.968;2023-08-21T03:23:01;11.20;;;8.77;;
10517;SDS011;5307;42.548;22.968;2023-08-21T03:25:27;13.35;;;9.18;;
10517;SDS011;5307;42.548;22.968;2023-08-21T03:27:54;12.52;;;8.48;;
10517;SDS011;5307;42.548;22.968;2023-08-21T03:30:21;19.00;;;9.15;;
10517;SDS011;5307;42.548;22.968;2023-08-21T03:32:48;13.45;;;8.77;;
10517;SDS011;5307;42.548;22.968;2023-08-21T03:35:15;12.63;;;9.35;;
10517;SDS011;5307;42.548;22.968;2023-08-21T03:37:42;10.68;;;7.95;;
10517;SDS011;5307;42.548;22.968;2023-08-21T03:40:10;12.13;;;9.18;;
10517;SDS011;5307;42.548;22.968;2023-08-21T03:42:51;10.57;;;8.98;;
10517;SDS011;5307;42.548;22.968;2023-08-21T03:45:18;12.30;;;9.07;;
10517;SDS011;5307;42.548;22.968;2023-08-21T03:47:45;12.77;;;9.15;;
10517;SDS011;5307;42.548;22.968;2023-08-21T03:50:11;12.70;;;10.45;;
10517;SDS011;5307;42.548;22.968;2023-08-21T03:52:39;14.30;;;9.90;;
10517;SDS011;5307;42.548;22.968;2023-08-21T03:55:06;20.02;;;9.63;;
10517;SDS011;5307;42.548;22.968;2023-08-21T03:57:34;21.77;;;10.38;;
10517;SDS011;5307;42.548;22.968;2023-08-21T04:00:01;34.15;;;10.70;;
10517;SDS011;5307;42.548;22.968;2023-08-21T04:02:29;20.40;;;9.95;;
10517;SDS011;5307;42.548;22.968;2023-08-21T04:04:56;19.80;;;10.13;;
10517;SDS011;5307;42.548;22.968;2023-08-21T04:07:23;16.38;;;9.85;;
10517;SDS011;5307;42.548;22.968;2023-08-21T04:09:49;15.63;;;10.07;;
10517;SDS011;5307;42.548;22.968;2023-08-21T04:12:16;16.08;;;10.35;;
10517;SDS011;5307;42.548;22.968;2023-08-21T04:14:44;15.68;;;9.23;;
10517;SDS011;5307;42.548;22.968;2023-08-21T04:17:11;15.52;;;9.63;;
10517;SDS011;5307;42.548;22.968;2023-08-21T04:19:38;32.10;;;10.50;;
10517;SDS011;5307;42.548;22.968;2023-08-21T04:22:06;26.88;;;10.57;;
10517;SDS011;5307;42.548;22.968;2023-08-21T04:24:32;24.88;;;11.10;;
10517;SDS011;5307;42.548;22.968;2023-08-21T04:26:59;19.23;;;9.32;;
10517;SDS011;5307;42.548;22.968;2023-08-21T04:29:26;16.35;;;9.43;;
10517;SDS011;5307;42.548;22.968;2023-08-21T04:31:57;15.82;;;9.20;;
10517;SDS011;5307;42.548;22.968;2023-08-21T04:34:24;20.95;;;9.68;;
10517;SDS011;5307;42.548;22.968;2023-08-21T04:36:50;17.02;;;9.85;;
10517;SDS011;5307;42.548;22.968;2023-08-21T04:39:17;18.77;;;9.95;;
10517;SDS011;5307;42.548;22.968;2023-08-21T04:41:44;16.92;;;10.30;;
10517;SDS011;5307;42.548;22.968;2023-08-21T04:44:10;18.90;;;10.70;;
10517;SDS011;5307;42.548;22.968;2023-08-21T04:46:37;13.25;;;9.43;;
10517;SDS011;5307;42.548;22.968;2023-08-21T04:49:05;12.85;;;8.07;;
10517;SDS011;5307;42.548;22.968;2023-08-21T04:51:32;8.55;;;7.50;;
10517;SDS011;5307;42.548;22.968;2023-08-21T04:53:59;13.80;;;8.15;;
10517;SDS011;5307;42.548;22.968;2023-08-21T04:56:25;16.48;;;7.80;;
10517;SDS011;5307;42.548;22.968;2023-08-21T04:58:52;9.88;;;8.13;;
10517;SDS011;5307;42.548;22.968;2023-08-21T05:01:19;11.55;;;8.07;;
10517;SDS011;5307;42.548;22.968;2023-08-21T05:03:46;14.02;;;8.80;;
10517;SDS011;5307;42.548;22.968;2023-08-21T05:06:14;9.82;;;8.82;;
10517;SDS011;5307;42.548;22.968;2023-08-21T05:08:43;13.48;;;8.63;;
10517;SDS011;5307;42.548;22.968;2023-08-21T05:11:09;15.68;;;8.80;;
10517;SDS011;5307;42.548;22.968;2023-08-21T05:13:36;12.68;;;8.32;;
10517;SDS011;5307;42.548;22.968;2023-08-21T05:16:10;9.85;;;8.32;;
10517;SDS011;5307;42.548;22.968;2023-08-21T05:18:37;10.02;;;8.02;;
10517;SDS011;5307;42.548;22.968;2023-08-21T05:21:03;12.20;;;8.07;;
10517;SDS011;5307;42.548;22.968;2023-08-21T05:23:32;11.65;;;8.05;;
10517;SDS011;5307;42.548;22.968;2023-08-21T05:25:58;12.35;;;8.13;;
10517;SDS011;5307;42.548;22.968;2023-08-21T05:28:25;11.07;;;7.90;;
10517;SDS011;5307;42.548;22.968;2023-08-21T05:30:52;8.43;;;7.45;;
10517;SDS011;5307;42.548;22.968;2023-08-21T05:33:19;10.02;;;7.82;;
10517;SDS011;5307;42.548;22.968;2023-08-21T05:35:46;15.75;;;7.25;;
10517;SDS011;5307;42.548;22.968;2023-08-21T05:38:13;10.35;;;7.63;;
10517;SDS011;5307;42.548;22.968;2023-08-21T05:40:41;11.07;;;7.82;;
10517;SDS011;5307;42.548;22.968;2023-08-21T05:43:08;10.38;;;7.03;;
10517;SDS011;5307;42.548;22.968;2023-08-21T05:45:35;10.43;;;8.13;;
10517;SDS011;5307;42.548;22.968;2023-08-21T05:48:02;13.55;;;8.65;;
10517;SDS011;5307;42.548;22.968;2023-08-21T05:50:29;14.82;;;9.10;;
10517;SDS011;5307;42.548;22.968;2023-08-21T05:52:55;14.38;;;8.63;;
10517;SDS011;5307;42.548;22.968;2023-08-21T05:55:23;14.93;;;9.35;;
10517;SDS011;5307;42.548;22.968;2023-08-21T05:57:51;15.38;;;8.77;;
10517;SDS011;5307;42.548;22.968;2023-08-21T06:00:18;12.55;;;8.00;;
10517;SDS011;5307;42.548;22.968;2023-08-21T06:02:45;12.95;;;7.80;;
10517;SDS011;5307;42.548;22.968;2023-08-21T06:05:12;12.07;;;8.18;;
10517;SDS011;5307;42.548;22.968;2023-08-21T06:07:38;13.95;;;8.00;;
10517;SDS011;5307;42.548;22.968;2023-08-21T06:10:06;9.80;;;6.90;;
10517;SDS011;5307;42.548;22.968;2023-08-21T06:12:36;13.85;;;7.43;;
10517;SDS011;5307;42.548;22.968;2023-08-21T06:15:05;10.00;;;7.32;;
10517;SDS011;5307;42.548;22.968;2023-08-21T06:17:34;18.60;;;7.68;;
10517;SDS011;5307;42.548;22.968;2023-08-21T06:20:02;19.60;;;7.50;;
10517;SDS011;5307;42.548;22.968;2023-08-21T06:22:30;12.02;;;6.55;;
10517;SDS011;5307;42.548;22.968;2023-08-21T06:24:57;8.73;;;6.72;;
10517;SDS011;5307;42.548;22.968;2023-08-21T06:27:24;10.18;;;6.45;;
10517;SDS011;5307;42.548;22.968;2023-08-21T06:29:51;8.57;;;6.85;;
10517;SDS011;5307;42.548;22.968;2023-08-21T06:32:19;12.30;;;6.57;;
10517;SDS011;5307;42.548;22.968;2023-08-21T06:34:46;15.18;;;6.60;;
10517;SDS011;5307;42.548;22.968;2023-08-21T06:37:13;11.10;;;6.43;;
10517;SDS011;5307;42.548;22.968;2023-08-21T06:39:40;25.02;;;6.60;;
10517;SDS011;5307;42.548;22.968;2023-08-21T06:42:06;11.25;;;6.65;;
10517;SDS011;5307;42.548;22.968;2023-08-21T06:44:33;7.95;;;5.65;;
10517;SDS011;5307;42.548;22.968;2023-08-21T06:47:00;11.90;;;6.25;;
10517;SDS011;5307;42.548;22.968;2023-08-21T06:49:28;9.38;;;6.43;;
10517;SDS011;5307;42.548;22.968;2023-08-21T06:51:56;8.45;;;6.00;;
10517;SDS011;5307;42.548;22.968;2023-08-21T06:54:23;10.55;;;6.13;;
10517;SDS011;5307;42.548;22.968;2023-08-21T06:56:50;12.13;;;6.63;;
10517;SDS011;5307;42.548;22.968;2023-08-21T06:59:17;13.35;;;6.47;;
10517;SDS011;5307;42.548;22.968;2023-08-21T07:01:43;10.85;;;5.78;;
10517;SDS011;5307;42.548;22.968;2023-08-21T07:04:10;9.68;;;5.82;;
10517;SDS011;5307;42.548;22.968;2023-08-21T07:06:38;10.60;;;6.43;;
10517;SDS011;5307;42.548;22.968;2023-08-21T07:09:05;9.80;;;6.18;;
10517;SDS011;5307;42.548;22.968;2023-08-21T07:11:32;11.13;;;6.60;;
10517;SDS011;5307;42.548;22.968;2023-08-21T07:13:59;12.40;;;6.00;;
10517;SDS011;5307;42.548;22.968;2023-08-21T07:16:25;14.65;;;6.13;;
10517;SDS011;5307;42.548;22.968;2023-08-21T07:18:52;9.75;;;5.53;;
10517;SDS011;5307;42.548;22.968;2023-08-21T07:21:19;11.10;;;5.45;;
10517;SDS011;5307;42.548;22.968;2023-08-21T07:23:47;7.93;;;5.03;;
10517;SDS011;5307;42.548;22.968;2023-08-21T07:26:14;9.25;;;5.78;;
10517;SDS011;5307;42.548;22.968;2023-08-21T07:28:41;10.43;;;5.25;;
10517;SDS011;5307;42.548;22.968;2023-08-21T07:31:07;6.30;;;5.10;;
10517;SDS011;5307;42.548;22.968;2023-08-21T07:33:34;18.13;;;5.63;;
10517;SDS011;5307;42.548;22.968;2023-08-21T07:36:02;12.40;;;5.22;;
10517;SDS011;5307;42.548;22.968;2023-08-21T07:38:32;5.82;;;5.20;;
10517;SDS011;5307;42.548;22.968;2023-08-21T07:41:04;8.55;;;5.07;;
10517;SDS011;5307;42.548;22.968;2023-08-21T07:43:32;5.57;;;4.97;;
10517;SDS011;5307;42.548;22.968;2023-08-21T07:46:01;12.27;;;5.50;;
10517;SDS011;5307;42.548;22.968;2023-08-21T07:48:29;9.30;;;5.45;;
10517;SDS011;5307;42.548;22.968;2023-08-21T07:50:56;7.80;;;6.18;;
10517;SDS011;5307;42.548;22.968;2023-08-21T07:53:23;9.95;;;5.68;;
10517;SDS011;5307;42.548;22.968;2023-08-21T07:55:50;10.57;;;6.00;;
10517;SDS011;5307;42.548;22.968;2023-08-21T07:58:19;9.25;;;5.60;;
10517;SDS011;5307;42.548;22.968;2023-08-21T08:00:46;6.07;;;5.47;;
10517;SDS011;5307;42.548;22.968;2023-08-21T08:03:13;12.30;;;6.00;;
10517;SDS011;5307;42.548;22.968;2023-08-21T08:05:40;7.97;;;5.20;;
10517;SDS011;5307;42.548;22.968;2023-08-21T08:08:08;9.15;;;5.72;;
10517;SDS011;5307;42.548;22.968;2023-08-21T08:10:36;9.40;;;5.00;;
10517;SDS011;5307;42.548;22.968;2023-08-21T08:13:04;6.32;;;5.45;;
10517;SDS011;5307;42.548;22.968;2023-08-21T08:15:32;7.97;;;6.30;;
10517;SDS011;5307;42.548;22.968;2023-08-21T08:18:00;6.50;;;5.82;;
10517;SDS011;5307;42.548;22.968;2023-08-21T08:20:27;10.77;;;5.40;;
10517;SDS011;5307;42.548;22.968;2023-08-21T08:22:53;8.55;;;5.60;;
10517;SDS011;5307;42.548;22.968;2023-08-21T08:25:20;13.75;;;5.80;;
10517;SDS011;5307;42.548;22.968;2023-08-21T08:27:47;9.88;;;5.38;;
10517;SDS011;5307;42.548;22.968;2023-08-21T08:30:14;8.13;;;5.40;;
10517;SDS011;5307;42.548;22.968;2023-08-21T08:32:43;7.05;;;5.47;;
10517;SDS011;5307;42.548;22.968;2023-08-21T08:35:10;11.80;;;5.47;;
10517;SDS011;5307;42.548;22.968;2023-08-21T08:37:38;9.73;;;5.32;;
10517;SDS011;5307;42.548;22.968;2023-08-21T08:40:05;10.43;;;5.55;;
10517;SDS011;5307;42.548;22.968;2023-08-21T08:42:34;10.60;;;5.85;;
10517;SDS011;5307;42.548;22.968;2023-08-21T08:45:02;8.25;;;5.18;;
10517;SDS011;5307;42.548;22.968;2023-08-21T08:47:30;13.82;;;7.25;;
10517;SDS011;5307;42.548;22.968;2023-08-21T08:49:59;40.75;;;9.80;;
10517;SDS011;5307;42.548;22.968;2023-08-21T08:52:29;22.08;;;6.55;;
10517;SDS011;5307;42.548;22.968;2023-08-21T08:54:57;11.25;;;5.78;;
10517;SDS011;5307;42.548;22.968;2023-08-21T08:57:24;13.05;;;5.40;;
10517;SDS011;5307;42.548;22.968;2023-08-21T08:59:51;12.55;;;5.47;;
10517;SDS011;5307;42.548;22.968;2023-08-21T09:02:19;11.18;;;5.82;;
10517;SDS011;5307;42.548;22.968;2023-08-21T09:04:46;5.80;;;5.25;;
10517;SDS011;5307;42.548;22.968;2023-08-21T09:07:16;9.93;;;5.22;;
10517;SDS011;5307;42.548;22.968;2023-08-21T09:09:45;8.00;;;5.40;;
10517;SDS011;5307;42.548;22.968;2023-08-21T09:12:13;5.53;;;4.95;;
10517;SDS011;5307;42.548;22.968;2023-08-21T09:14:41;9.05;;;5.82;;
10517;SDS011;5307;42.548;22.968;2023-08-21T09:17:10;13.55;;;8.57;;
10517;SDS011;5307;42.548;22.968;2023-08-21T09:19:37;11.77;;;4.80;;
10517;SDS011;5307;42.548;22.968;2023-08-21T09:22:08;15.43;;;5.65;;
10517;SDS011;5307;42.548;22.968;2023-08-21T09:24:37;6.32;;;5.30;;
10517;SDS011;5307;42.548;22.968;2023-08-21T09:27:11;10.93;;;6.18;;
10517;SDS011;5307;42.548;22.968;2023-08-21T09:29:39;8.85;;;5.07;;
10517;SDS011;5307;42.548;22.968;2023-08-21T09:32:07;5.57;;;4.68;;
10517;SDS011;5307;42.548;22.968;2023-08-21T09:34:34;8.82;;;5.63;;
10517;SDS011;5307;42.548;22.968;2023-08-21T09:37:04;10.88;;;6.00;;
10517;SDS011;5307;42.548;22.968;2023-08-21T09:39:33;13.10;;;5.32;;
10517;SDS011;5307;42.548;22.968;2023-08-21T09:42:02;5.93;;;5.25;;
10517;SDS011;5307;42.548;22.968;2023-08-21T09:44:35;12.13;;;5.43;;
10517;SDS011;5307;42.548;22.968;2023-08-21T09:47:04;10.95;;;5.38;;
10517;SDS011;5307;42.548;22.968;2023-08-21T09:49:34;8.05;;;5.65;;
10517;SDS011;5307;42.548;22.968;2023-08-21T09:52:04;7.10;;;5.05;;
10517;SDS011;5307;42.548;22.968;2023-08-21T09:54:31;9.57;;;5.07;;
10517;SDS011;5307;42.548;22.968;2023-08-21T09:57:00;6.10;;;5.30;;
10517;SDS011;5307;42.548;22.968;2023-08-21T09:59:29;9.60;;;4.93;;
10517;SDS011;5307;42.548;22.968;2023-08-21T10:01:58;9.77;;;5.25;;
10517;SDS011;5307;42.548;22.968;2023-08-21T10:04:26;6.65;;;4.78;;
10517;SDS011;5307;42.548;22.968;2023-08-21T10:06:55;6.72;;;5.35;;
10517;SDS011;5307;42.548;22.968;2023-08-21T10:09:23;8.45;;;5.47;;
10517;SDS011;5307;42.548;22.968;2023-08-21T10:11:51;8.85;;;5.75;;
10517;SDS011;5307;42.548;22.968;2023-08-21T10:14:20;6.20;;;4.57;;
10517;SDS011;5307;42.548;22.968;2023-08-21T10:16:49;5.63;;;4.78;;
10517;SDS011;5307;42.548;22.968;2023-08-21T10:19:17;10.68;;;5.70;;
10517;SDS011;5307;42.548;22.968;2023-08-21T10:21:46;7.07;;;5.10;;
10517;SDS011;5307;42.548;22.968;2023-08-21T10:24:25;8.70;;;5.32;;
10517;SDS011;5307;42.548;22.968;2023-08-21T10:26:53;7.97;;;5.63;;
10517;SDS011;5307;42.548;22.968;2023-08-21T10:29:25;11.05;;;5.25;;
10517;SDS011;5307;42.548;22.968;2023-08-21T10:31:58;5.65;;;5.15;;
10517;SDS011;5307;42.548;22.968;2023-08-21T10:34:30;9.27;;;4.97;;
10517;SDS011;5307;42.548;22.968;2023-08-21T10:37:08;6.28;;;5.40;;
10517;SDS011;5307;42.548;22.968;2023-08-21T10:39:38;14.73;;;5.80;;
10517;SDS011;5307;42.548;22.968;2023-08-21T10:42:08;9.02;;;5.78;;
10517;SDS011;5307;42.548;22.968;2023-08-21T10:44:50;9.60;;;5.10;;
10517;SDS011;5307;42.548;22.968;2023-08-21T10:47:22;9.52;;;5.35;;
10517;SDS011;5307;42.548;22.968;2023-08-21T10:49:50;7.25;;;5.03;;
10517;SDS011;5307;42.548;22.968;2023-08-21T10:52:21;8.68;;;5.00;;
10517;SDS011;5307;42.548;22.968;2023-08-21T10:54:49;14.85;;;5.50;;
10517;SDS011;5307;42.548;22.968;2023-08-21T10:57:17;10.55;;;4.88;;
10517;SDS011;5307;42.548;22.968;2023-08-21T10:59:55;8.05;;;4.43;;
10517;SDS011;5307;42.548;22.968;2023-08-21T11:02:23;8.30;;;4.85;;
10517;SDS011;5307;42.548;22.968;2023-08-21T11:04:51;8.68;;;5.47;;
10517;SDS011;5307;42.548;22.968;2023-08-21T11:07:18;13.45;;;5.78;;
10517;SDS011;5307;42.548;22.968;2023-08-21T11:09:46;8.23;;;4.93;;
10517;SDS011;5307;42.548;22.968;2023-08-21T11:12:14;11.23;;;7.50;;
10517;SDS011;5307;42.548;22.968;2023-08-21T11:14:42;12.50;;;6.70;;
10517;SDS011;5307;42.548;22.968;2023-08-21T11:17:11;6.57;;;5.97;;
10517;SDS011;5307;42.548;22.968;2023-08-21T11:19:39;8.10;;;5.30;;
10517;SDS011;5307;42.548;22.968;2023-08-21T11:22:07;13.45;;;5.68;;
10517;SDS011;5307;42.548;22.968;2023-08-21T11:24:41;6.20;;;5.05;;
10517;SDS011;5307;42.548;22.968;2023-08-21T11:27:11;5.90;;;5.30;;
10517;SDS011;5307;42.548;22.968;2023-08-21T11:29:39;12.30;;;5.40;;
10517;SDS011;5307;42.548;22.968;2023-08-21T11:32:09;12.30;;;5.80;;
10517;SDS011;5307;42.548;22.968;2023-08-21T11:34:38;7.25;;;5.50;;
10517;SDS011;5307;42.548;22.968;2023-08-21T11:37:05;13.43;;;6.88;;
10517;SDS011;5307;42.548;22.968;2023-08-21T11:39:38;13.57;;;5.20;;
10517;SDS011;5307;42.548;22.968;2023-08-21T11:42:09;15.23;;;5.90;;
10517;SDS011;5307;42.548;22.968;2023-08-21T11:44:41;7.85;;;4.85;;
10517;SDS011;5307;42.548;22.968;2023-08-21T11:47:08;9.07;;;5.32;;
10517;SDS011;5307;42.548;22.968;2023-08-21T11:49:37;8.70;;;5.03;;
10517;SDS011;5307;42.548;22.968;2023-08-21T11:52:06;7.93;;;5.53;;
10517;SDS011;5307;42.548;22.968;2023-08-21T11:54:33;6.93;;;5.45;;
10517;SDS011;5307;42.548;22.968;2023-08-21T11:57:03;8.85;;;5.85;;
10517;SDS011;5307;42.548;22.968;2023-08-21T11:59:31;8.55;;;5.10;;
10517;SDS011;5307;42.548;22.968;2023-08-21T12:02:17;10.55;;;5.10;;
10517;SDS011;5307;42.548;22.968;2023-08-21T12:04:46;5.95;;;5.00;;
10517;SDS011;5307;42.548;22.968;2023-08-21T12:07:18;6.35;;;5.20;;
10517;SDS011;5307;42.548;22.968;2023-08-21T12:09:46;7.95;;;5.28;;
10517;SDS011;5307;42.548;22.968;2023-08-21T12:12:13;6.40;;;5.63;;
10517;SDS011;5307;42.548;22.968;2023-08-21T12:14:40;13.68;;;6.13;;
10517;SDS011;5307;42.548;22.968;2023-08-21T12:17:07;13.00;;;5.90;;
10517;SDS011;5307;42.548;22.968;2023-08-21T12:19:34;13.38;;;5.70;;
10517;SDS011;5307;42.548;22.968;2023-08-21T12:22:03;7.65;;;4.70;;
10517;SDS011;5307;42.548;22.968;2023-08-21T12:24:30;10.50;;;5.22;;
10517;SDS011;5307;42.548;22.968;2023-08-21T12:26:57;10.40;;;4.90;;
10517;SDS011;5307;42.548;22.968;2023-08-21T12:29:23;5.50;;;4.47;;
10517;SDS011;5307;42.548;22.968;2023-08-21T12:31:50;7.72;;;5.72;;
10517;SDS011;5307;42.548;22.968;2023-08-21T12:34:17;11.48;;;5.88;;
10517;SDS011;5307;42.548;22.968;2023-08-21T12:36:44;7.38;;;5.30;;
10517;SDS011;5307;42.548;22.968;2023-08-21T12:39:12;8.80;;;5.35;;
10517;SDS011;5307;42.548;22.968;2023-08-21T12:41:41;10.60;;;5.88;;
10517;SDS011;5307;42.548;22.968;2023-08-21T12:44:08;8.65;;;5.40;;
10517;SDS011;5307;42.548;22.968;2023-08-21T12:46:34;10.65;;;5.60;;
10517;SDS011;5307;42.548;22.968;2023-08-21T12:49:01;6.53;;;5.38;;
10517;SDS011;5307;42.548;22.968;2023-08-21T12:51:30;13.55;;;5.85;;
10517;SDS011;5307;42.548;22.968;2023-08-21T12:53:57;7.72;;;5.20;;
10517;SDS011;5307;42.548;22.968;2023-08-21T12:56:25;7.78;;;5.65;;
10517;SDS011;5307;42.548;22.968;2023-08-21T12:58:52;9.95;;;5.50;;
10517;SDS011;5307;42.548;22.968;2023-08-21T13:01:18;11.88;;;6.65;;
10517;SDS011;5307;42.548;22.968;2023-08-21T13:03:45;9.73;;;5.47;;
10517;SDS011;5307;42.548;22.968;2023-08-21T13:06:12;6.53;;;5.47;;
10517;SDS011;5307;42.548;22.968;2023-08-21T13:08:39;15.00;;;5.70;;
10517;SDS011;5307;42.548;22.968;2023-08-21T13:11:06;7.55;;;5.07;;
10517;SDS011;5307;42.548;22.968;2023-08-21T13:13:34;7.07;;;4.95;;
10517;SDS011;5307;42.548;22.968;2023-08-21T13:16:01;6.60;;;5.97;;
10517;SDS011;5307;42.548;22.968;2023-08-21T13:18:28;9.93;;;5.13;;
10517;SDS011;5307;42.548;22.968;2023-08-21T13:20:55;8.27;;;5.70;;
10517;SDS011;5307;42.548;22.968;2023-08-21T13:23:22;5.95;;;5.25;;
10517;SDS011;5307;42.548;22.968;2023-08-21T13:25:49;8.70;;;5.22;;
10517;SDS011;5307;42.548;22.968;2023-08-21T13:28:18;8.52;;;5.72;;
10517;SDS011;5307;42.548;22.968;2023-08-21T13:30:47;8.73;;;5.22;;
10517;SDS011;5307;42.548;22.968;2023-08-21T13:33:14;6.45;;;4.93;;
10517;SDS011;5307;42.548;22.968;2023-08-21T13:35:43;12.10;;;5.72;;
10517;SDS011;5307;42.548;22.968;2023-08-21T13:38:10;11.40;;;6.00;;
10517;SDS011;5307;42.548;22.968;2023-08-21T13:40:37;8.93;;;5.43;;
10517;SDS011;5307;42.548;22.968;2023-08-21T13:43:03;5.63;;;4.97;;
10517;SDS011;5307;42.548;22.968;2023-08-21T13:45:32;6.10;;;5.50;;
10517;SDS011;5307;42.548;22.968;2023-08-21T13:48:00;7.80;;;5.40;;
10517;SDS011;5307;42.548;22.968;2023-08-21T13:50:29;9.05;;;5.80;;
10517;SDS011;5307;42.548;22.968;2023-08-21T13:52:56;8.43;;;5.40;;
10517;SDS011;5307;42.548;22.968;2023-08-21T13:55:23;7.78;;;5.07;;
10517;SDS011;5307;42.548;22.968;2023-08-21T13:57:50;6.72;;;4.80;;
10517;SDS011;5307;42.548;22.968;2023-08-21T14:00:17;5.78;;;5.28;;
10517;SDS011;5307;42.548;22.968;2023-08-21T14:02:43;8.60;;;5.40;;
10517;SDS011;5307;42.548;22.968;2023-08-21T14:05:12;12.30;;;5.85;;
10517;SDS011;5307;42.548;22.968;2023-08-21T14:07:39;9.13;;;5.43;;
10517;SDS011;5307;42.548;22.968;2023-08-21T14:10:07;9.00;;;5.18;;
10517;SDS011;5307;42.548;22.968;2023-08-21T14:12:34;8.32;;;5.13;;
10517;SDS011;5307;42.548;22.968;2023-08-21T14:15:01;13.30;;;5.15;;
10517;SDS011;5307;42.548;22.968;2023-08-21T14:17:28;10.45;;;5.43;;
10517;SDS011;5307;42.548;22.968;2023-08-21T14:19:55;12.13;;;5.65;;
10517;SDS011;5307;42.548;22.968;2023-08-21T14:22:24;11.75;;;5.80;;
10517;SDS011;5307;42.548;22.968;2023-08-21T14:24:50;12.20;;;4.97;;
10517;SDS011;5307;42.548;22.968;2023-08-21T14:27:17;10.85;;;5.40;;
10517;SDS011;5307;42.548;22.968;2023-08-21T14:29:44;7.95;;;5.63;;
10517;SDS011;5307;42.548;22.968;2023-08-21T14:32:11;8.70;;;5.43;;
10517;SDS011;5307;42.548;22.968;2023-08-21T14:34:38;7.95;;;5.50;;
10517;SDS011;5307;42.548;22.968;2023-08-21T14:37:05;10.82;;;5.72;;
10517;SDS011;5307;42.548;22.968;2023-08-21T14:39:33;7.43;;;5.60;;
10517;SDS011;5307;42.548;22.968;2023-08-21T14:42:00;9.35;;;5.90;;
10517;SDS011;5307;42.548;22.968;2023-08-21T14:44:27;9.05;;;6.03;;
10517;SDS011;5307;42.548;22.968;2023-08-21T14:46:54;7.75;;;6.05;;
10517;SDS011;5307;42.548;22.968;2023-08-21T14:49:21;12.65;;;5.82;;
10517;SDS011;5307;42.548;22.968;2023-08-21T14:51:48;9.55;;;6.18;;